createdAt,value
2019-04-11T00:01:44.740Z,18.77
2019-04-11T00:04:10.596Z,19.62
2019-04-11T00:06:41.849Z,18.85
2019-04-11T00:09:16.709Z,19.32
2019-04-11T00:11:48.369Z,19.45
2019-04-11T00:14:21.992Z,20.17
2019-04-11T00:16:53.472Z,23.02
2019-04-11T00:19:24.927Z,22.17
2019-04-11T00:21:57.215Z,21.52
2019-04-11T00:24:29.205Z,21.70
2019-04-11T00:27:00.973Z,21.57
2019-04-11T00:29:32.622Z,22.27
2019-04-11T00:32:06.518Z,21.50
2019-04-11T00:34:37.441Z,23.27
2019-04-11T00:37:09.101Z,22.62
2019-04-11T00:39:40.841Z,22.13
2019-04-11T00:42:12.516Z,22.30
2019-04-11T00:44:45.158Z,23.60
2019-04-11T00:47:17.217Z,22.87
2019-04-11T00:49:48.794Z,21.73
2019-04-11T00:52:20.674Z,21.23
2019-04-11T00:54:53.140Z,19.87
2019-04-11T00:57:25.201Z,19.57
2019-04-11T00:59:56.859Z,19.82
2019-04-11T01:02:29.538Z,19.48
2019-04-11T01:05:01.358Z,20.35
2019-04-11T01:07:35.239Z,20.12
2019-04-11T01:10:10.219Z,20.45
2019-04-11T01:12:42.947Z,21.05
2019-04-11T01:15:17.463Z,20.62
2019-04-11T01:17:49.725Z,20.45
2019-04-11T01:20:21.638Z,19.50
2019-04-11T01:22:52.921Z,21.70
2019-04-11T01:25:24.454Z,20.92
2019-04-11T01:27:56.422Z,20.50
2019-04-11T01:30:38.607Z,19.87
2019-04-11T01:33:10.853Z,18.12
2019-04-11T01:35:43.646Z,18.85
2019-04-11T01:38:15.236Z,18.57
2019-04-11T01:40:47.728Z,19.30
2019-04-11T01:43:19.845Z,18.55
2019-04-11T01:45:51.815Z,17.57
2019-04-11T01:48:45.891Z,17.73
2019-04-11T01:51:17.890Z,19.50
2019-04-11T01:53:49.499Z,19.17
2019-04-11T01:56:21.131Z,17.87
2019-04-11T01:58:53.119Z,17.98
2019-04-11T02:01:32.705Z,17.77
2019-04-11T02:04:11.952Z,18.98
2019-04-11T02:06:45.782Z,20.00
2019-04-11T02:09:18.316Z,18.65
2019-04-11T02:11:50.029Z,20.50
2019-04-11T02:14:22.655Z,21.15
2019-04-11T02:16:54.570Z,20.70
2019-04-11T02:19:26.001Z,21.02
2019-04-11T02:22:08.921Z,23.38
2019-04-11T02:24:47.989Z,22.82
2019-04-11T02:27:23.310Z,21.17
2019-04-11T02:29:55.254Z,22.50
2019-04-11T02:32:29.015Z,20.48
2019-04-11T02:35:02.469Z,21.82
2019-04-11T02:37:34.324Z,22.35
2019-04-11T02:40:08.165Z,22.32
2019-04-11T02:42:41.041Z,22.22
2019-04-11T02:45:25.166Z,23.15
2019-04-11T02:47:48.378Z,22.15
2019-04-11T02:50:21.981Z,23.57
2019-04-11T02:52:53.014Z,27.98
2019-04-11T02:55:25.186Z,26.62
2019-04-11T02:57:59.111Z,23.83
2019-04-11T03:00:31.467Z,23.27
2019-04-11T03:03:05.688Z,22.87
2019-04-11T03:05:39.199Z,22.75
2019-04-11T03:08:13.933Z,24.20
2019-04-11T03:10:45.507Z,25.52
2019-04-11T03:13:18.928Z,23.80
2019-04-11T03:16:07.197Z,25.43
2019-04-11T03:18:43.223Z,25.60
2019-04-11T03:21:02.837Z,24.27
2019-04-11T03:23:35.443Z,27.15
2019-04-11T03:26:09.657Z,26.27
2019-04-11T03:28:42.541Z,28.10
2019-04-11T03:31:50.544Z,28.70
2019-04-11T03:37:06.810Z,27.07
2019-04-11T03:39:15.407Z,27.25
2019-04-11T03:41:48.945Z,27.07
2019-04-11T03:44:13.508Z,28.35
2019-04-11T03:46:49.592Z,26.40
2019-04-11T03:49:20.977Z,31.15
2019-04-11T03:51:43.632Z,30.97
2019-04-11T03:54:17.796Z,30.20
2019-04-11T03:56:51.169Z,31.55
2019-04-11T03:59:23.674Z,28.35
2019-04-11T04:01:57.479Z,28.42
2019-04-11T04:04:29.149Z,28.95
2019-04-11T04:07:02.452Z,29.80
2019-04-11T04:09:35.299Z,29.65
2019-04-11T04:12:09.299Z,29.10
2019-04-11T04:15:04.609Z,32.20
2019-04-11T04:17:47.567Z,31.37
2019-04-11T04:20:37.177Z,32.23
2019-04-11T04:23:16.629Z,32.73
2019-04-11T04:25:49.356Z,31.85
2019-04-11T04:28:21.890Z,30.72
2019-04-11T04:30:54.524Z,30.35
2019-04-11T04:33:26.575Z,29.95
2019-04-11T04:36:00.258Z,30.02
2019-04-11T04:38:33.841Z,31.73
2019-04-11T04:41:21.164Z,31.57
2019-04-11T04:43:41.949Z,32.85
2019-04-11T04:46:29.997Z,34.43
2019-04-11T04:48:49.251Z,34.15
2019-04-11T04:51:23.792Z,33.88
2019-04-11T04:53:55.525Z,33.25
2019-04-11T04:56:31.615Z,35.43
2019-04-11T04:59:02.628Z,45.85
2019-04-11T05:01:35.112Z,47.10
2019-04-11T05:04:06.896Z,42.53
2019-04-11T05:06:40.669Z,44.75
2019-04-11T05:09:12.887Z,38.85
2019-04-11T05:11:44.721Z,39.08
2019-04-11T05:14:15.997Z,32.10
2019-04-11T05:16:48.217Z,26.00
2019-04-11T05:19:19.425Z,21.80
2019-04-11T05:21:50.961Z,17.50
2019-04-11T05:24:23.191Z,14.05
2019-04-11T05:26:55.831Z,12.55
2019-04-11T05:29:27.663Z,7.87
2019-04-11T05:31:59.253Z,6.80
2019-04-11T05:34:30.457Z,6.17
2019-04-11T05:37:01.992Z,7.47
2019-04-11T05:39:33.883Z,7.30
2019-04-11T05:42:05.366Z,7.90
2019-04-11T05:44:40.184Z,8.10
2019-04-11T05:47:15.858Z,9.30
2019-04-11T05:49:49.289Z,11.35
2019-04-11T05:52:20.896Z,12.18
2019-04-11T05:54:54.881Z,11.70
2019-04-11T05:57:33.617Z,12.63
2019-04-11T06:00:00.159Z,12.25
2019-04-11T06:02:41.713Z,13.78
2019-04-11T06:05:19.345Z,13.80
2019-04-11T06:07:57.772Z,13.13
2019-04-11T06:10:42.555Z,11.70
2019-04-11T06:13:24.570Z,10.20
2019-04-11T06:16:00.603Z,7.80
2019-04-11T06:18:48.124Z,7.05
2019-04-11T06:21:24.405Z,6.65
2019-04-11T06:24:03.647Z,5.58
2019-04-11T06:26:44.964Z,8.43
2019-04-11T06:29:35.530Z,3.58
2019-04-11T06:32:26.245Z,3.60
2019-04-11T06:35:06.119Z,2.20
2019-04-11T06:37:56.304Z,2.70
2019-04-11T06:40:32.763Z,2.40
2019-04-11T06:43:21.815Z,3.10
2019-04-11T06:46:15.154Z,3.10
2019-04-11T06:49:14.034Z,3.33
2019-04-11T06:51:53.413Z,2.60
2019-04-11T06:54:56.217Z,3.40
2019-04-11T06:57:29.908Z,1.90
2019-04-11T07:00:02.891Z,2.00
2019-04-11T07:02:38.915Z,1.92
2019-04-11T07:05:11.862Z,1.50
2019-04-11T07:07:46.712Z,1.80
2019-04-11T07:10:22.247Z,1.80
2019-04-11T07:13:16.388Z,1.87
2019-04-11T07:15:53.449Z,1.87
2019-04-11T07:18:44.180Z,1.70
2019-04-11T07:21:15.688Z,1.80
2019-04-11T07:24:05.378Z,1.98
2019-04-11T07:26:50.088Z,2.55
2019-04-11T07:29:46.483Z,1.80
2019-04-11T07:32:20.228Z,2.00
2019-04-11T07:35:29.325Z,1.98
2019-04-11T07:38:01.177Z,1.85
2019-04-11T07:40:56.070Z,2.87
2019-04-11T07:43:29.810Z,2.40
2019-04-11T07:46:24.578Z,11.20
2019-04-11T07:48:59.439Z,1.90
2019-04-11T07:51:50.786Z,5.05
2019-04-11T07:54:23.828Z,2.17
2019-04-11T07:57:05.496Z,1.60
2019-04-11T07:59:59.954Z,1.57
2019-04-11T08:02:49.241Z,1.40
2019-04-11T08:05:40.903Z,2.00
2019-04-11T08:08:32.392Z,1.65
2019-04-11T08:11:11.524Z,1.60
2019-04-11T08:14:13.827Z,1.70
2019-04-11T08:17:09.326Z,1.90
2019-04-11T08:20:15.190Z,4.00
2019-04-11T08:22:49.614Z,7.27
2019-04-11T08:25:45.751Z,4.67
2019-04-11T08:28:18.407Z,1.47
2019-04-11T08:30:55.260Z,1.40
2019-04-11T08:33:27.082Z,1.50
2019-04-11T08:36:35.291Z,1.55
2019-04-11T08:39:17.295Z,1.60
2019-04-11T08:42:13.307Z,1.37
2019-04-11T08:44:46.096Z,1.80
2019-04-11T08:47:20.296Z,1.47
2019-04-11T08:49:54.158Z,1.37
2019-04-11T08:52:52.062Z,1.40
2019-04-11T08:55:43.536Z,1.47
2019-04-11T08:58:16.485Z,1.65
2019-04-11T09:00:56.302Z,1.65
2019-04-11T09:03:59.294Z,1.80
2019-04-11T09:06:26.244Z,1.57
2019-04-11T09:09:15.317Z,1.80
2019-04-11T09:11:49.471Z,1.60
2019-04-11T09:14:38.153Z,1.67
2019-04-11T09:17:12.325Z,1.50
2019-04-11T09:20:14.224Z,1.70
2019-04-11T09:22:59.466Z,1.73
2019-04-11T09:26:08.130Z,2.30
2019-04-11T09:28:51.477Z,1.90
2019-04-11T09:31:41.865Z,1.97
2019-04-11T09:34:44.205Z,2.00
2019-04-11T09:37:23.226Z,2.00
2019-04-11T09:40:20.009Z,2.27
2019-04-11T09:43:09.866Z,2.67
2019-04-11T09:45:59.762Z,1.80
2019-04-11T09:48:42.271Z,2.52
2019-04-11T09:51:42.290Z,2.70
2019-04-11T09:54:32.440Z,2.33
2019-04-11T09:57:36.493Z,2.17
2019-04-11T10:00:28.743Z,1.90
2019-04-11T10:03:17.545Z,1.97
2019-04-11T10:05:54.572Z,1.87
2019-04-11T10:08:37.321Z,2.23
2019-04-11T10:11:26.201Z,2.30
2019-04-11T10:14:17.644Z,1.87
2019-04-11T10:17:06.784Z,2.00
2019-04-11T10:20:00.384Z,2.13
2019-04-11T10:22:49.006Z,1.60
2019-04-11T10:25:28.265Z,2.10
2019-04-11T10:28:24.972Z,2.20
2019-04-11T10:31:16.511Z,2.03
2019-04-11T10:34:19.617Z,2.17
2019-04-11T10:37:09.731Z,1.83
2019-04-11T10:40:00.368Z,2.10
2019-04-11T10:42:32.830Z,1.87
2019-04-11T10:45:29.274Z,2.00
2019-04-11T10:48:03.315Z,1.67
2019-04-11T10:51:12.849Z,1.83
2019-04-11T10:53:44.295Z,1.60
2019-04-11T10:56:39.366Z,2.03
2019-04-11T10:59:11.149Z,1.97
2019-04-11T11:02:00.303Z,1.60
2019-04-11T11:04:38.781Z,1.77
2019-04-11T11:07:13.188Z,2.47
2019-04-11T11:10:04.682Z,2.07
2019-04-11T11:13:04.284Z,1.30
2019-04-11T11:15:42.608Z,1.50
2019-04-11T11:18:54.132Z,1.72
2019-04-11T11:21:09.334Z,1.80
2019-04-11T11:24:17.737Z,1.70
2019-04-11T11:26:54.516Z,1.80
2019-04-11T11:29:47.600Z,1.90
2019-04-11T11:32:38.006Z,1.23
2019-04-11T11:35:34.283Z,1.30
2019-04-11T11:38:20.126Z,1.23
2019-04-11T11:41:16.388Z,0.90
2019-04-11T11:43:48.804Z,1.37
2019-04-11T11:46:45.213Z,1.20
2019-04-11T11:49:37.622Z,1.37
2019-04-11T11:52:13.559Z,1.10
2019-04-11T11:54:53.657Z,1.00
2019-04-11T11:57:39.272Z,1.30
2019-04-11T12:00:17.015Z,1.30
2019-04-11T12:03:03.654Z,1.50
2019-04-11T12:05:52.185Z,1.30
2019-04-11T12:08:44.319Z,1.73
2019-04-11T12:11:14.215Z,1.50
2019-04-11T12:14:07.634Z,1.23
2019-04-11T12:16:48.311Z,1.20
2019-04-11T12:19:26.867Z,1.10
2019-04-11T12:21:58.601Z,1.20
2019-04-11T12:25:00.670Z,1.33
2019-04-11T12:28:00.449Z,1.10
2019-04-11T12:30:50.450Z,1.00
2019-04-11T12:33:39.525Z,1.00
2019-04-11T12:36:22.996Z,1.00
2019-04-11T12:39:25.445Z,1.00
2019-04-11T12:42:18.529Z,0.90
2019-04-11T12:45:08.397Z,1.00
2019-04-11T12:47:48.942Z,0.90
2019-04-11T12:50:37.963Z,1.33
2019-04-11T12:53:14.230Z,1.43
2019-04-11T12:56:22.373Z,1.10
2019-04-11T12:59:05.539Z,1.60
2019-04-11T13:01:58.777Z,1.00
2019-04-11T13:04:35.127Z,1.03
2019-04-11T13:07:28.253Z,1.00
2019-04-11T13:10:05.815Z,1.07
2019-04-11T13:13:13.697Z,1.10
2019-04-11T13:15:48.125Z,1.00
2019-04-11T13:18:53.487Z,1.10
2019-04-11T13:21:27.601Z,1.07
2019-04-11T13:24:20.379Z,1.00
2019-04-11T13:27:19.216Z,1.20
2019-04-11T13:30:09.257Z,1.40
2019-04-11T13:32:48.489Z,1.40
2019-04-11T13:35:38.338Z,3.10
2019-04-11T13:38:17.301Z,1.13
2019-04-11T13:41:07.067Z,1.23
2019-04-11T13:44:09.895Z,1.43
2019-04-11T13:46:59.844Z,1.40
2019-04-11T13:49:48.517Z,1.40
2019-04-11T13:52:38.841Z,1.23
2019-04-11T13:55:15.921Z,1.30
2019-04-11T13:58:05.858Z,1.40
2019-04-11T14:00:41.869Z,1.57
2019-04-11T14:03:31.667Z,1.40
2019-04-11T14:06:07.619Z,1.90
2019-04-11T14:09:06.859Z,2.00
2019-04-11T14:11:42.047Z,1.60
2019-04-11T14:14:32.966Z,1.50
2019-04-11T14:17:23.900Z,1.43
2019-04-11T14:20:29.149Z,1.70
2019-04-11T14:23:15.173Z,1.83
2019-04-11T14:26:15.161Z,1.53
2019-04-11T14:29:04.856Z,1.67
2019-04-11T14:32:00.134Z,1.40
2019-04-11T14:34:48.917Z,2.23
2019-04-11T14:37:45.102Z,1.77
2019-04-11T14:40:47.348Z,2.10
2019-04-11T14:43:26.918Z,1.60
2019-04-11T14:46:19.935Z,1.70
2019-04-11T14:48:52.846Z,7.50
2019-04-11T14:51:40.053Z,2.23
2019-04-11T14:54:17.349Z,4.40
2019-04-11T14:56:53.415Z,2.90
2019-04-11T14:59:49.313Z,2.27
2019-04-11T15:02:30.345Z,2.53
2019-04-11T15:05:26.037Z,2.43
2019-04-11T15:07:57.783Z,2.03
2019-04-11T15:10:48.306Z,2.10
2019-04-11T15:13:24.398Z,1.97
2019-04-11T15:16:13.206Z,2.20
2019-04-11T15:18:49.743Z,3.17
2019-04-11T15:21:48.600Z,5.73
2019-04-11T15:24:20.578Z,7.03
2019-04-11T15:27:10.779Z,3.10
2019-04-11T15:29:45.489Z,6.73
2019-04-11T15:32:30.117Z,6.73
2019-04-11T15:35:13.019Z,2.63
2019-04-11T15:38:09.118Z,3.10
2019-04-11T15:40:46.575Z,2.57
2019-04-11T15:43:43.432Z,1.90
2019-04-11T15:46:43.126Z,2.33
2019-04-11T15:49:46.467Z,2.60
2019-04-11T15:52:20.171Z,3.63
2019-04-11T15:55:12.856Z,2.20
2019-04-11T15:57:47.739Z,3.37
2019-04-11T16:00:56.194Z,2.10
2019-04-11T16:03:27.374Z,2.40
2019-04-11T16:06:15.761Z,2.10
2019-04-11T16:08:52.295Z,2.70
2019-04-11T16:11:54.190Z,4.07
2019-04-11T16:14:30.308Z,8.30
2019-04-11T16:17:35.365Z,5.03
2019-04-11T16:20:20.432Z,3.90
2019-04-11T16:23:03.921Z,2.53
2019-04-11T16:25:34.939Z,2.87
2019-04-11T16:28:42.406Z,3.93
2019-04-11T16:31:14.183Z,3.00
2019-04-11T16:34:15.875Z,5.00
2019-04-11T16:37:04.392Z,4.17
2019-04-11T16:39:43.259Z,3.37
2019-04-11T16:42:15.569Z,3.87
2019-04-11T16:45:25.180Z,3.67
2019-04-11T16:48:04.400Z,3.10
2019-04-11T16:50:35.546Z,3.80
2019-04-11T16:53:10.506Z,4.30
2019-04-11T16:55:42.424Z,4.43
2019-04-11T16:58:15.219Z,5.63
2019-04-11T17:00:45.544Z,6.43
2019-04-11T17:03:17.369Z,7.33
2019-04-11T17:06:07.183Z,7.70
2019-04-11T17:08:56.406Z,5.60
2019-04-11T17:11:28.813Z,6.23
2019-04-11T17:13:59.656Z,5.97
2019-04-11T17:16:31.019Z,5.67
2019-04-11T17:19:04.952Z,5.20
2019-04-11T17:21:43.104Z,5.50
2019-04-11T17:24:07.380Z,5.03
2019-04-11T17:26:38.302Z,4.87
2019-04-11T17:29:09.481Z,5.13
2019-04-11T17:31:40.660Z,5.13
2019-04-11T17:34:12.146Z,5.00
2019-04-11T17:36:43.154Z,5.80
2019-04-11T17:39:14.502Z,7.27
2019-04-11T17:41:45.507Z,10.40
2019-04-11T17:44:16.350Z,8.37
2019-04-11T17:46:47.372Z,8.47
2019-04-11T17:49:18.633Z,8.57
2019-04-11T17:51:55.844Z,8.20
2019-04-11T17:54:24.677Z,7.33
2019-04-11T17:56:58.718Z,11.40
2019-04-11T17:59:29.155Z,8.27
2019-04-11T18:02:00.115Z,5.60
2019-04-11T18:04:32.260Z,8.97
2019-04-11T18:07:03.197Z,7.80
2019-04-11T18:09:34.045Z,6.33
2019-04-11T18:12:05.612Z,12.87
2019-04-11T18:14:36.562Z,7.67
2019-04-11T18:17:07.592Z,5.40
2019-04-11T18:19:38.706Z,5.37
2019-04-11T18:22:13.353Z,4.93
2019-04-11T18:24:43.186Z,4.07
2019-04-11T18:27:14.673Z,4.40
2019-04-11T18:29:45.686Z,3.93
2019-04-11T18:32:16.864Z,8.20
2019-04-11T18:34:47.838Z,4.23
2019-04-11T18:37:18.714Z,11.43
2019-04-11T18:39:49.726Z,6.17
2019-04-11T18:42:20.657Z,4.93
2019-04-11T18:44:52.063Z,5.27
2019-04-11T18:47:23.228Z,9.37
2019-04-11T18:49:54.132Z,5.90
2019-04-11T18:52:26.537Z,5.07
2019-04-11T18:54:58.015Z,5.50
2019-04-11T18:57:29.348Z,5.63
2019-04-11T19:00:02.348Z,4.33
2019-04-11T19:02:33.940Z,4.80
2019-04-11T19:05:06.070Z,4.10
2019-04-11T19:07:38.468Z,3.93
2019-04-11T19:10:14.575Z,5.60
2019-04-11T19:12:45.931Z,4.67
2019-04-11T19:15:17.099Z,7.27
2019-04-11T19:17:48.403Z,6.70
2019-04-11T19:20:20.101Z,7.77
2019-04-11T19:22:51.097Z,7.83
2019-04-11T19:25:22.233Z,7.70
2019-04-11T19:27:54.370Z,6.20
2019-04-11T19:30:27.057Z,5.60
2019-04-11T19:32:59.593Z,6.23
2019-04-11T19:35:30.998Z,4.63
2019-04-11T19:38:02.582Z,11.63
2019-04-11T19:40:34.206Z,5.10
2019-04-11T19:43:05.582Z,5.20
2019-04-11T19:45:36.885Z,4.07
2019-04-11T19:48:08.586Z,4.87
2019-04-11T19:50:40.187Z,5.23
2019-04-11T19:53:11.952Z,5.00
2019-04-11T19:56:05.405Z,4.57
2019-04-11T19:58:37.370Z,5.03
2019-04-11T20:01:09.936Z,4.67
2019-04-11T20:03:41.305Z,6.37
2019-04-11T20:06:13.409Z,7.80
2019-04-11T20:08:44.779Z,8.00
2019-04-11T20:11:15.966Z,7.83
2019-04-11T20:13:47.400Z,12.80
2019-04-11T20:16:18.351Z,7.73
2019-04-11T20:18:51.357Z,7.77
2019-04-11T20:21:22.667Z,7.73
2019-04-11T20:23:53.812Z,7.50
2019-04-11T20:26:33.838Z,7.40
2019-04-11T20:29:05.047Z,7.47
2019-04-11T20:31:36.196Z,7.43
2019-04-11T20:34:08.200Z,8.60
2019-04-11T20:36:41.386Z,9.00
2019-04-11T20:39:14.981Z,7.87
2019-04-11T20:41:45.202Z,7.90
2019-04-11T20:44:16.572Z,7.77
2019-04-11T20:46:48.006Z,8.60
2019-04-11T20:49:18.981Z,8.47
2019-04-11T20:51:50.106Z,9.10
2019-04-11T20:54:21.103Z,7.63
2019-04-11T20:56:52.475Z,7.67
2019-04-11T20:59:33.954Z,8.30
2019-04-11T21:01:57.001Z,7.30
2019-04-11T21:04:28.061Z,7.80
2019-04-11T21:07:01.763Z,7.40
2019-04-11T21:09:33.242Z,6.80
2019-04-11T21:12:07.485Z,7.93
2019-04-11T21:14:37.923Z,7.53
2019-04-11T21:17:09.009Z,7.13
2019-04-11T21:19:40.553Z,8.00
2019-04-11T21:22:11.726Z,10.83
2019-04-11T21:24:44.067Z,8.87
2019-04-11T21:27:15.131Z,15.93
2019-04-11T21:29:46.075Z,17.87
2019-04-11T21:32:17.286Z,18.47
2019-04-11T21:34:48.276Z,17.90
2019-04-11T21:37:19.720Z,17.13
2019-04-11T21:39:50.822Z,19.53
2019-04-11T21:42:22.467Z,17.63
2019-04-11T21:44:53.640Z,17.60
2019-04-11T21:47:25.056Z,17.13
2019-04-11T21:49:56.053Z,16.23
2019-04-11T21:52:27.169Z,17.13
2019-04-11T21:54:58.534Z,16.97
2019-04-11T21:57:29.743Z,16.27
2019-04-11T22:00:01.601Z,16.23
2019-04-11T22:02:34.318Z,16.87
2019-04-11T22:05:06.044Z,17.87
2019-04-11T22:07:37.309Z,16.90
2019-04-11T22:10:09.070Z,17.47
2019-04-11T22:12:40.572Z,16.97
2019-04-11T22:15:12.572Z,12.47
2019-04-11T22:17:45.500Z,12.10
2019-04-11T22:20:17.480Z,12.77
2019-04-11T22:22:48.379Z,11.60
2019-04-11T22:25:19.720Z,13.47
2019-04-11T22:27:51.082Z,11.20
2019-04-11T22:30:25.332Z,11.53
2019-04-11T22:33:07.403Z,11.20
2019-04-11T22:35:38.659Z,12.63
2019-04-11T22:38:10.941Z,13.67
2019-04-11T22:40:42.163Z,11.50
2019-04-11T22:43:24.201Z,11.63
2019-04-11T22:45:47.033Z,12.20
2019-04-11T22:48:18.137Z,12.17
2019-04-11T22:50:49.350Z,11.67
2019-04-11T22:53:20.690Z,12.07
2019-04-11T22:55:51.894Z,11.37
2019-04-11T22:58:23.276Z,11.93
2019-04-11T23:00:54.605Z,11.00
2019-04-11T23:03:32.648Z,11.47
2019-04-11T23:06:03.950Z,10.93
2019-04-11T23:08:35.580Z,10.18
2019-04-11T23:11:06.798Z,9.87
2019-04-11T23:13:38.143Z,10.37
2019-04-11T23:16:09.711Z,12.20
2019-04-11T23:18:41.907Z,11.48
2019-04-11T23:21:15.048Z,11.67
2019-04-11T23:23:46.499Z,9.95
2019-04-11T23:26:17.962Z,10.75
2019-04-11T23:28:49.079Z,9.67
2019-04-11T23:31:21.091Z,8.47
2019-04-11T23:33:52.674Z,7.90
2019-04-11T23:36:24.081Z,7.43
2019-04-11T23:38:55.752Z,7.53
2019-04-11T23:41:27.304Z,8.63
2019-04-11T23:43:58.871Z,8.03
2019-04-11T23:46:30.399Z,7.55
2019-04-11T23:49:02.057Z,7.95
2019-04-11T23:51:33.283Z,7.97
2019-04-11T23:54:04.996Z,8.95
2019-04-11T23:56:36.237Z,8.73
2019-04-11T23:59:07.545Z,9.13
